QTR1150 OTHH-OEDF
Flight info
| Callsign | QTR1150 |
|---|---|
| Flight time | 0h 28m |
| Altitude | 16000 |
| Route | TULUB B457 NARMI |
| Aircraft | A20N/M-SDE2E3FGHIRWXY/LB1 |
Departure
| Time | 2026-05-09 12:37 |
|---|---|
| Airport | Hamad International Airport (OTHH) |
Arrival
| Time | 2026-05-09 13:05 |
|---|---|
| Airport | King Fahd International Airport (OEDF) |
| Time | Latitude | Longitude | Altitude | Speed | Heading |
|---|---|---|---|---|---|
| 2026-05-09 12:12 | 25.26817 | 51.61243 | 25 ft | 0 kts | 292° |
| 2026-05-09 12:26 | 25.26812 | 51.61256 | 26 ft | 3 kts | 292° |
| 2026-05-09 12:26 | 25.26805 | 51.61275 | 29 ft | 3 kts | 292° |
| 2026-05-09 12:26 | 25.26800 | 51.61288 | 29 ft | 3 kts | 292° |
| 2026-05-09 12:26 | 25.26793 | 51.61307 | 30 ft | 3 kts | 292° |
| 2026-05-09 12:27 | 25.26786 | 51.61326 | 29 ft | 3 kts | 304° |
| 2026-05-09 12:27 | 25.26772 | 51.61339 | 28 ft | 3 kts | 345° |
| 2026-05-09 12:27 | 25.26754 | 51.61340 | 28 ft | 3 kts | 12° |
| 2026-05-09 12:27 | 25.26752 | 51.61340 | 28 ft | 0 kts | 12° |
| 2026-05-09 12:30 | 25.26825 | 51.61370 | 25 ft | 12 kts | 21° |
| 2026-05-09 12:31 | 25.26914 | 51.61412 | 25 ft | 15 kts | 24° |
| 2026-05-09 12:31 | 25.26986 | 51.61451 | 25 ft | 9 kts | 41° |
| 2026-05-09 12:31 | 25.27026 | 51.61526 | 25 ft | 14 kts | 67° |
| 2026-05-09 12:32 | 25.27070 | 51.61644 | 25 ft | 19 kts | 57° |
| 2026-05-09 12:32 | 25.27187 | 51.61651 | 25 ft | 20 kts | 340° |
| 2026-05-09 12:32 | 25.27322 | 51.61587 | 25 ft | 21 kts | 338° |
| 2026-05-09 12:32 | 25.27448 | 51.61533 | 25 ft | 20 kts | 339° |
| 2026-05-09 12:33 | 25.27502 | 51.61455 | 25 ft | 11 kts | 230° |
| 2026-05-09 12:33 | 25.27415 | 51.61414 | 26 ft | 17 kts | 209° |
| 2026-05-09 12:33 | 25.27367 | 51.61304 | 25 ft | 17 kts | 268° |
| 2026-05-09 12:33 | 25.27316 | 51.61181 | 25 ft | 20 kts | 243° |
| 2026-05-09 12:34 | 25.27259 | 51.61019 | 26 ft | 25 kts | 248° |
| 2026-05-09 12:34 | 25.27188 | 51.60821 | 25 ft | 29 kts | 249° |
| 2026-05-09 12:34 | 25.27116 | 51.60599 | 25 ft | 33 kts | 250° |
| 2026-05-09 12:34 | 25.27031 | 51.60379 | 25 ft | 29 kts | 242° |
| 2026-05-09 12:35 | 25.26906 | 51.60252 | 27 ft | 26 kts | 160° |
| 2026-05-09 12:35 | 25.26732 | 51.60334 | 25 ft | 30 kts | 160° |
| 2026-05-09 12:35 | 25.26518 | 51.60394 | 25 ft | 30 kts | 201° |
| 2026-05-09 12:35 | 25.26329 | 51.60403 | 26 ft | 30 kts | 160° |
| 2026-05-09 12:36 | 25.26117 | 51.60491 | 27 ft | 36 kts | 156° |
| 2026-05-09 12:36 | 25.25879 | 51.60597 | 25 ft | 37 kts | 158° |
| 2026-05-09 12:36 | 25.25699 | 51.60600 | 25 ft | 21 kts | 237° |
| 2026-05-09 12:36 | 25.25723 | 51.60478 | 26 ft | 17 kts | 309° |
| 2026-05-09 12:37 | 25.25898 | 51.60382 | 27 ft | 52 kts | 338° |
| 2026-05-09 12:37 | 25.26508 | 51.60114 | 27 ft | 140 kts | 339° |
| 2026-05-09 12:37 | 25.27510 | 51.59706 | 684 ft | 160 kts | 345° |
| 2026-05-09 12:37 | 25.28706 | 51.59530 | 1327 ft | 190 kts | 356° |
| 2026-05-09 12:38 | 25.30137 | 51.59316 | 1748 ft | 230 kts | 346° |
| 2026-05-09 12:38 | 25.31697 | 51.58665 | 1766 ft | 248 kts | 336° |
| 2026-05-09 12:38 | 25.33246 | 51.57766 | 1576 ft | 249 kts | 331° |
| 2026-05-09 12:38 | 25.34706 | 51.56753 | 1571 ft | 250 kts | 328° |
| 2026-05-09 12:39 | 25.36146 | 51.55677 | 1958 ft | 253 kts | 327° |
| 2026-05-09 12:39 | 25.37607 | 51.54562 | 2921 ft | 254 kts | 326° |
| 2026-05-09 12:39 | 25.39045 | 51.53475 | 3933 ft | 249 kts | 326° |
| 2026-05-09 12:39 | 25.40481 | 51.52409 | 4921 ft | 246 kts | 326° |
| 2026-05-09 12:40 | 25.41921 | 51.51357 | 5712 ft | 251 kts | 325° |
| 2026-05-09 12:40 | 25.43412 | 51.50276 | 6411 ft | 259 kts | 324° |
| 2026-05-09 12:40 | 25.44918 | 51.49188 | 7101 ft | 263 kts | 324° |
| 2026-05-09 12:40 | 25.46471 | 51.48068 | 7911 ft | 266 kts | 324° |
| 2026-05-09 12:41 | 25.48028 | 51.46947 | 8722 ft | 269 kts | 324° |
| 2026-05-09 12:41 | 25.49593 | 51.45821 | 9450 ft | 271 kts | 324° |
| 2026-05-09 12:41 | 25.51187 | 51.44673 | 9857 ft | 273 kts | 323° |
| 2026-05-09 12:41 | 25.52783 | 51.43525 | 9960 ft | 275 kts | 323° |
| 2026-05-09 12:42 | 25.54399 | 51.42361 | 9989 ft | 278 kts | 323° |
| 2026-05-09 12:42 | 25.56042 | 51.41174 | 10133 ft | 293 kts | 323° |
| 2026-05-09 12:42 | 25.57823 | 51.39881 | 10423 ft | 314 kts | 324° |
| 2026-05-09 12:42 | 25.59698 | 51.38523 | 10881 ft | 326 kts | 324° |
| 2026-05-09 12:43 | 25.61620 | 51.37135 | 11457 ft | 333 kts | 324° |
| 2026-05-09 12:43 | 25.63592 | 51.35714 | 12084 ft | 339 kts | 324° |
| 2026-05-09 12:43 | 25.65564 | 51.34293 | 12729 ft | 344 kts | 324° |
| 2026-05-09 12:43 | 25.67587 | 51.32835 | 13405 ft | 348 kts | 324° |
| 2026-05-09 12:44 | 25.69621 | 51.31365 | 14033 ft | 353 kts | 324° |
| 2026-05-09 12:44 | 25.71703 | 51.29861 | 14649 ft | 358 kts | 324° |
| 2026-05-09 12:44 | 25.73787 | 51.28353 | 15269 ft | 362 kts | 324° |
| 2026-05-09 12:44 | 25.75910 | 51.26815 | 15764 ft | 364 kts | 324° |
| 2026-05-09 12:45 | 25.78030 | 51.25279 | 15970 ft | 370 kts | 324° |
| 2026-05-09 12:45 | 25.80212 | 51.23694 | 15993 ft | 379 kts | 324° |
| 2026-05-09 12:45 | 25.82418 | 51.22094 | 15997 ft | 381 kts | 324° |
| 2026-05-09 12:45 | 25.84653 | 51.20473 | 16003 ft | 381 kts | 324° |
| 2026-05-09 12:46 | 25.86881 | 51.18861 | 16000 ft | 381 kts | 324° |
| 2026-05-09 12:46 | 25.89081 | 51.17266 | 15997 ft | 381 kts | 324° |
| 2026-05-09 12:46 | 25.91292 | 51.15660 | 15993 ft | 380 kts | 324° |
| 2026-05-09 12:46 | 25.93521 | 51.14039 | 15999 ft | 380 kts | 324° |
| 2026-05-09 12:47 | 25.95707 | 51.12449 | 15997 ft | 380 kts | 324° |
| 2026-05-09 12:47 | 25.97938 | 51.10826 | 16000 ft | 379 kts | 324° |
| 2026-05-09 12:47 | 26.00129 | 51.09231 | 16003 ft | 379 kts | 324° |
| 2026-05-09 12:47 | 26.02352 | 51.07612 | 15999 ft | 379 kts | 324° |
| 2026-05-09 12:48 | 26.04549 | 51.06013 | 16008 ft | 379 kts | 324° |
| 2026-05-09 12:48 | 26.06765 | 51.04398 | 15995 ft | 378 kts | 324° |
| 2026-05-09 12:48 | 26.08951 | 51.02804 | 16000 ft | 378 kts | 324° |
| 2026-05-09 12:48 | 26.11077 | 51.01077 | 15998 ft | 375 kts | 313° |
| 2026-05-09 12:49 | 26.12635 | 50.98815 | 16008 ft | 371 kts | 299° |
| 2026-05-09 12:49 | 26.13817 | 50.96261 | 16008 ft | 370 kts | 293° |
| 2026-05-09 12:49 | 26.14799 | 50.93637 | 16005 ft | 369 kts | 290° |
| 2026-05-09 12:49 | 26.15739 | 50.90948 | 16009 ft | 369 kts | 290° |
| 2026-05-09 12:50 | 26.16673 | 50.88317 | 16008 ft | 369 kts | 291° |
| 2026-05-09 12:50 | 26.17660 | 50.85662 | 16019 ft | 369 kts | 292° |
| 2026-05-09 12:50 | 26.18673 | 50.83051 | 16016 ft | 369 kts | 292° |
| 2026-05-09 12:50 | 26.19713 | 50.80455 | 16010 ft | 369 kts | 293° |
| 2026-05-09 12:51 | 26.20777 | 50.77844 | 16013 ft | 369 kts | 293° |
| 2026-05-09 12:51 | 26.21843 | 50.75250 | 16018 ft | 369 kts | 293° |
| 2026-05-09 12:51 | 26.22915 | 50.72648 | 16020 ft | 369 kts | 293° |
| 2026-05-09 12:51 | 26.23979 | 50.70063 | 16020 ft | 368 kts | 293° |
| 2026-05-09 12:52 | 26.25040 | 50.67479 | 16022 ft | 368 kts | 293° |
| 2026-05-09 12:52 | 26.25928 | 50.64797 | 16020 ft | 367 kts | 285° |
| 2026-05-09 12:52 | 26.26491 | 50.62017 | 16022 ft | 367 kts | 280° |
| 2026-05-09 12:52 | 26.26883 | 50.59223 | 16025 ft | 367 kts | 278° |
| 2026-05-09 12:53 | 26.27204 | 50.56382 | 16028 ft | 367 kts | 277° |
| 2026-05-09 12:53 | 26.27501 | 50.53585 | 16020 ft | 367 kts | 277° |
| 2026-05-09 12:53 | 26.27812 | 50.50744 | 16016 ft | 367 kts | 277° |
| 2026-05-09 12:53 | 26.28140 | 50.47912 | 16025 ft | 367 kts | 278° |
| 2026-05-09 12:54 | 26.28482 | 50.45105 | 16015 ft | 368 kts | 278° |
| 2026-05-09 12:54 | 26.28835 | 50.42297 | 16016 ft | 368 kts | 278° |
| 2026-05-09 12:54 | 26.29198 | 50.39459 | 16013 ft | 368 kts | 278° |
| 2026-05-09 12:54 | 26.29559 | 50.36659 | 15998 ft | 368 kts | 278° |
| 2026-05-09 12:55 | 26.29915 | 50.33821 | 15994 ft | 368 kts | 276° |
| 2026-05-09 12:55 | 26.29916 | 50.30986 | 15995 ft | 368 kts | 269° |
| 2026-05-09 12:55 | 26.29789 | 50.28126 | 15993 ft | 369 kts | 268° |
| 2026-05-09 12:55 | 26.29625 | 50.25278 | 15991 ft | 369 kts | 267° |
| 2026-05-09 12:56 | 26.29713 | 50.22426 | 15993 ft | 367 kts | 284° |
| 2026-05-09 12:56 | 26.30796 | 50.19895 | 15996 ft | 367 kts | 307° |
| 2026-05-09 12:56 | 26.32501 | 50.17780 | 15964 ft | 368 kts | 308° |
| 2026-05-09 12:56 | 26.33892 | 50.15386 | 15416 ft | 364 kts | 295° |
| 2026-05-09 12:57 | 26.34657 | 50.12714 | 14385 ft | 372 kts | 279° |
| 2026-05-09 12:57 | 26.34694 | 50.09782 | 13201 ft | 382 kts | 262° |
| 2026-05-09 12:57 | 26.33976 | 50.06914 | 12082 ft | 389 kts | 253° |
| 2026-05-09 12:57 | 26.33052 | 50.04063 | 11135 ft | 388 kts | 252° |
| 2026-05-09 12:58 | 26.32148 | 50.01273 | 10286 ft | 384 kts | 252° |
| 2026-05-09 12:58 | 26.31263 | 49.98466 | 9389 ft | 380 kts | 253° |
| 2026-05-09 12:58 | 26.30414 | 49.95711 | 8475 ft | 376 kts | 253° |
| 2026-05-09 12:58 | 26.29573 | 49.92942 | 7569 ft | 372 kts | 254° |
| 2026-05-09 12:59 | 26.28758 | 49.90237 | 6675 ft | 369 kts | 254° |
| 2026-05-09 12:59 | 26.27951 | 49.87559 | 5780 ft | 365 kts | 253° |
| 2026-05-09 12:59 | 26.27060 | 49.84891 | 4736 ft | 364 kts | 257° |
| 2026-05-09 12:59 | 26.26923 | 49.82139 | 3817 ft | 355 kts | 282° |
| 2026-05-09 13:00 | 26.27808 | 49.79671 | 3292 ft | 335 kts | 307° |
| 2026-05-09 13:00 | 26.29487 | 49.78004 | 3058 ft | 309 kts | 331° |
| 2026-05-09 13:00 | 26.31275 | 49.76924 | 3011 ft | 283 kts | 335° |
| 2026-05-09 13:00 | 26.33049 | 49.76184 | 3002 ft | 258 kts | 347° |
| 2026-05-09 13:01 | 26.34731 | 49.75955 | 3010 ft | 236 kts | 1° |
| 2026-05-09 13:01 | 26.36291 | 49.76214 | 2997 ft | 218 kts | 17° |
| 2026-05-09 13:01 | 26.37412 | 49.77189 | 3004 ft | 207 kts | 58° |
| 2026-05-09 13:01 | 26.37613 | 49.78785 | 3027 ft | 216 kts | 95° |
| 2026-05-09 13:02 | 26.37175 | 49.80420 | 3032 ft | 223 kts | 98° |
| 2026-05-09 13:02 | 26.37128 | 49.81532 | 3017 ft | 209 kts | 71° |
| 2026-05-09 13:02 | 26.38205 | 49.82876 | 3025 ft | 159 kts | 8° |
| 2026-05-09 13:02 | 26.39123 | 49.82544 | 2995 ft | 133 kts | 313° |
| 2026-05-09 13:03 | 26.39765 | 49.81598 | 3071 ft | 181 kts | 321° |
| 2026-05-09 13:03 | 26.40853 | 49.80753 | 2607 ft | 185 kts | 330° |
| 2026-05-09 13:03 | 26.41964 | 49.80187 | 2224 ft | 166 kts | 346° |
| 2026-05-09 13:03 | 26.43068 | 49.79855 | 1569 ft | 166 kts | 346° |
| 2026-05-09 13:04 | 26.44190 | 49.79542 | 948 ft | 165 kts | 347° |
| 2026-05-09 13:04 | 26.45307 | 49.79204 | 302 ft | 166 kts | 348° |
| 2026-05-09 13:04 | 26.46384 | 49.78890 | 95 ft | 150 kts | 346° |
| 2026-05-09 13:04 | 26.47300 | 49.78620 | 64 ft | 120 kts | 342° |
| 2026-05-09 13:05 | 26.47982 | 49.78415 | 57 ft | 84 kts | 344° |
| 2026-05-09 13:05 | 26.48451 | 49.78264 | 57 ft | 57 kts | 346° |
| 2026-05-09 13:05 | 26.48702 | 49.78237 | 59 ft | 14 kts | 47° |
| 2026-05-09 13:05 | 26.48709 | 49.78254 | 58 ft | 0 kts | 70° |
| 2026-05-09 13:06 | 26.48709 | 49.78255 | 58 ft | 0 kts | 70° |
| 2026-05-09 13:06 | 26.48722 | 49.78294 | 64 ft | 12 kts | 70° |
| 2026-05-09 13:06 | 26.48756 | 49.78430 | 56 ft | 24 kts | 81° |
| 2026-05-09 13:07 | 26.48629 | 49.78533 | 62 ft | 29 kts | 163° |
| 2026-05-09 13:07 | 26.48480 | 49.78579 | 58 ft | 38 kts | 164° |
| 2026-05-09 13:07 | 26.48096 | 49.78700 | 60 ft | 29 kts | 163° |
| 2026-05-09 13:07 | 26.47997 | 49.78730 | 61 ft | 24 kts | 165° |
| 2026-05-09 13:08 | 26.47749 | 49.78805 | 62 ft | 32 kts | 164° |
| 2026-05-09 13:08 | 26.47597 | 49.78852 | 62 ft | 36 kts | 165° |
| 2026-05-09 13:08 | 26.47302 | 49.78943 | 67 ft | 29 kts | 164° |
| 2026-05-09 13:08 | 26.47174 | 49.78984 | 64 ft | 28 kts | 163° |
| 2026-05-09 13:09 | 26.46995 | 49.79053 | 68 ft | 24 kts | 131° |
| 2026-05-09 13:09 | 26.47008 | 49.79223 | 65 ft | 20 kts | 72° |
| 2026-05-09 13:09 | 26.47060 | 49.79292 | 69 ft | 9 kts | 13° |
| 2026-05-09 13:09 | 26.47113 | 49.79281 | 66 ft | 7 kts | 341° |
| 2026-05-09 13:10 | 26.47161 | 49.79260 | 61 ft | 7 kts | 355° |
| 2026-05-09 13:10 | 26.47186 | 49.79287 | 65 ft | 6 kts | 64° |
| 2026-05-09 13:10 | 26.47205 | 49.79332 | 64 ft | 5 kts | 64° |
| 2026-05-09 13:10 | 26.47207 | 49.79338 | 61 ft | 0 kts | 64° |